Oakwood Village, Ohio
Current Conditions -  °F | °C
As of 1:53 AM on Monday 22 Dec 2014 (Local Time) from KBKL Reporting Station
Clear Clear  
Wind Chill: 24°   Ceiling: Unl
Heat Index: 29°   Visibility: 10mi
Dew Point: 21°   Wind: 5mph
Humidity: 72%   Direction: 140°SE
Pressure: 30.16"   Gusts: NA
Location:  41.3816°N, 81.5301°W
Report Text: KBKL 220653Z 14004KT 10SM CLR M02/M06 A3016 RMK AO2 SLP220 T10171061
Loading
Personal Weather Stations






























Interactive Weather Map New forecast layout! Learn more

10-Day Weather Forecast

Advertisements
Track Severe Weather on mobile